Cherokee, IA (51012)

9:09 PM CDT on September 01, 2015 (GMT -0500)
APRSWXNET | | Change Station
CLOSE
Current Station
Personal Weather Station
Location: Cherokee, IA
Elevation: 1312 ft
Nearby Weather Stations

Elev 1312 ft 42.76 °N, 95.52 °W | Updated 21 minutes ago

Scattered Clouds
Scattered Clouds
76 °F
Feels Like 76 °F
N
0
Wind Variable Wind from ESE
Gusts 0.0 mph

Today
High -- | Low -- °F
--% Chance of Precip.
Yesterday
High -- | Low -- °F
Precip. -- in
6:46 AM 7:57 PM
Waning Gibbous, 84% visible
Pressure 29.90 in
Visibility 10.0 miles
Clouds Scattered Clouds 12000 ft
Heat Index 76 °F
Dew Point 73 °F
Humidity 90%
Rainfall in
Snow Depth Not available.
UV 0 out of 12
Pollen 10.50 out of 12
Air Quality Not available.
Flu Activity Not available.
METAR KCKP 020155Z AUTO 17003KT 10SM SCT120 24/23 A2990 RMK AO2 T02400231
Pressure 29.90 in
Visibility 10.0 miles
Clouds Scattered Clouds 12000 ft
Heat Index 76 °F
Dew Point 73 °F
Humidity 90%
Rainfall in
Snow Depth Not available.
UV 0 out of 12
Pollen 10.50 out of 12
Air Quality Not available.
Flu Activity Not available.
METAR KCKP 020155Z AUTO 17003KT 10SM SCT120 24/23 A2990 RMK AO2 T02400231

10-Day Weather Forecast

×

Almanac

Astronomy

Sep. 01, 2015 Rise Set
Actual Time
Civil Twilight
Nautical Twilight
Astronomical Twilight
Moon
Length of Visible Light
Length of Day
Tomorrow will be .
, % of the Moon is Illuminated

Today's Extremes

State Highs State Lows

Community

WunderPhotos

Upload Photos

1,851,679 photos uploaded!

WunderBlogs® & News

Nearby

Air Quality

  Air Quality AQ Index Pollutant
Not available.

Snow Depth

Station Depth Elevation

Earthquake Activity

City Distance Mag. Time & Date
Minimum magnitude displayed is 2.5.

Coastal Water Temperatures

Place Temperature

Stations

Nearby Weather Stations

Station Location Temp. Windchill Dew Point Humidity Wind Precip. Elev Updated Type